Time;durP1;ratioP1;P1;durP2;ratioP2;P2;SDS_P1;SDS_P2;PMS_P1;PMS_P2;Temp;Humidity;BMP_temperature;BMP_pressure;BME280_temperature;BME280_humidity;BME280_pressure;Samples;Min_cycle;Max_cycle;Signal;HPM_P1;HPM_P2
2023/05/22 00:00:06;;;;;;;;;;;18.30;99.90;;;;;;5118836;27;19918;-45
2023/05/22 00:02:32;;;;;;;;;;;18.30;99.90;;;;;;5114289;28;20370;-46
2023/05/22 00:04:59;;;;;;;;;;;18.30;99.90;;;;;;5113378;28;19912;-47
2023/05/22 00:07:26;;;;;;;;;;;18.30;99.90;;;;;;5114367;28;19984;-47
2023/05/22 00:09:52;;;;;;;;;;;18.30;99.90;;;;;;5114316;28;19915;-47
2023/05/22 00:12:18;;;;;;;;;;;18.30;99.90;;;;;;5113704;28;19916;-47
2023/05/22 00:14:43;;;;;;;;;;;18.40;99.90;;;;;;5114190;28;19930;-46
2023/05/22 00:17:09;;;;;;;;;;;18.30;99.90;;;;;;5113787;28;19994;-49
2023/05/22 00:19:34;;;;;;;;;;;18.30;99.90;;;;;;5127397;27;19912;-46
2023/05/22 00:22:00;;;;;;;;;;;18.30;99.90;;;;;;5134421;27;19911;-46
2023/05/22 00:24:25;;;;;;;;;;;18.30;99.90;;;;;;5133863;27;20002;-47
2023/05/22 00:26:51;;;;;;;;;;;18.30;99.90;;;;;;5134611;27;19952;-46
2023/05/22 00:29:16;;;;;;;;;;;18.30;99.90;;;;;;5134044;27;19908;-46
2023/05/22 00:31:41;;;;;;;;;;;18.30;99.90;;;;;;5133736;27;20168;-46
2023/05/22 00:34:07;;;;;;;;;;;18.20;99.90;;;;;;5134141;27;19907;-47
2023/05/22 00:36:32;;;;;;;;;;;18.20;99.90;;;;;;5134640;27;19912;-48
2023/05/22 00:38:58;;;;;;;;;;;18.20;99.90;;;;;;5133785;27;19934;-47
2023/05/22 00:41:23;;;;;;;;;;;18.20;99.90;;;;;;5134312;27;19907;-46
2023/05/22 00:43:50;;;;;;;;;;;18.20;99.90;;;;;;5134143;27;19922;-46
2023/05/22 00:46:20;;;;;;;;;;;18.10;99.90;;;;;;5133223;27;20358;-47
2023/05/22 00:48:46;;;;;;;;;;;18.10;99.90;;;;;;5127251;27;19908;-46
2023/05/22 00:51:11;;;;;;;;;;;18.20;99.90;;;;;;5113582;28;19918;-47
2023/05/22 00:53:37;;;;;;;;;;;18.20;99.90;;;;;;5112785;28;19931;-48
2023/05/22 00:56:02;;;;;;;;;;;18.20;99.90;;;;;;5113523;28;19912;-46
2023/05/22 00:58:28;;;;;;;;;;;18.20;99.90;;;;;;5116323;27;19923;-47
2023/05/22 01:00:54;;;;;;;;;;;18.20;99.90;;;;;;5133153;27;19918;-47
2023/05/22 01:03:24;;;;;;;;;;;18.20;99.90;;;;;;5133984;27;20378;-47
2023/05/22 01:05:50;;;;;;;;;;;18.10;99.90;;;;;;5133875;27;19911;-46
2023/05/22 01:08:16;;;;;;;;;;;18.10;99.90;;;;;;5133176;27;20285;-45
2023/05/22 01:10:41;;;;;;;;;;;18.10;99.90;;;;;;5133816;27;19908;-49
2023/05/22 01:13:19;;;;;;;;;;;18.10;99.90;;;;;;5133953;27;20445;-48
2023/05/22 01:15:48;;;;;;;;;;;18.10;99.90;;;;;;5132997;27;19908;-47
2023/05/22 01:18:28;;;;;;;;;;;18.10;99.90;;;;;;5131309;27;20378;-47
2023/05/22 01:21:13;;;;;;;;;;;18.10;99.90;;;;;;5131325;27;19965;-46
2023/05/22 01:23:38;;;;;;;;;;;18.00;99.90;;;;;;5133698;27;20220;-47
2023/05/22 01:26:09;;;;;;;;;;;18.00;99.90;;;;;;5133688;28;20132;-47
2023/05/22 01:28:37;;;;;;;;;;;18.00;99.90;;;;;;5132908;28;19908;-46
2023/05/22 01:31:09;;;;;;;;;;;18.00;99.90;;;;;;5133646;28;19998;-47
2023/05/22 01:33:45;;;;;;;;;;;18.00;99.90;;;;;;5133626;28;19907;-47
2023/05/22 01:36:13;;;;;;;;;;;18.00;99.90;;;;;;5132564;28;20027;-46
2023/05/22 01:38:39;;;;;;;;;;;17.90;99.90;;;;;;5133611;28;19908;-47
2023/05/22 01:41:05;;;;;;;;;;;17.90;99.90;;;;;;5136047;27;19923;-47
2023/05/22 01:43:30;;;;;;;;;;;17.90;99.90;;;;;;5136894;27;20012;-46
2023/05/22 01:45:56;;;;;;;;;;;17.90;99.90;;;;;;5137683;27;19912;-47
2023/05/22 01:48:21;;;;;;;;;;;17.90;99.90;;;;;;5137051;27;19911;-47
2023/05/22 01:50:49;;;;;;;;;;;17.90;99.90;;;;;;5136675;27;20281;-46
2023/05/22 01:53:18;;;;;;;;;;;17.80;99.90;;;;;;5137760;27;19907;-47
2023/05/22 01:55:46;;;;;;;;;;;17.80;99.90;;;;;;5136731;27;19908;-49
2023/05/22 01:58:23;;;;;;;;;;;17.90;99.90;;;;;;5137464;27;20361;-47
2023/05/22 02:00:53;;;;;;;;;;;17.80;99.90;;;;;;5137431;27;19908;-48
2023/05/22 02:03:21;;;;;;;;;;;17.80;99.90;;;;;;5136398;27;19923;-51
2023/05/22 02:05:50;;;;;;;;;;;17.80;99.90;;;;;;5137248;27;19994;-46
2023/05/22 02:08:16;;;;;;;;;;;17.80;99.90;;;;;;5137313;27;19919;-47
2023/05/22 02:10:42;;;;;;;;;;;17.80;99.90;;;;;;5136395;27;19908;-48
2023/05/22 02:13:07;;;;;;;;;;;17.80;99.90;;;;;;5135478;27;20285;-48
2023/05/22 02:15:33;;;;;;;;;;;17.70;99.90;;;;;;5136091;27;20353;-47
2023/05/22 02:17:59;;;;;;;;;;;17.80;99.90;;;;;;5136496;27;19964;-46
2023/05/22 02:20:24;;;;;;;;;;;17.70;99.90;;;;;;5137076;27;19915;-47
2023/05/22 02:22:50;;;;;;;;;;;17.70;99.90;;;;;;5136859;27;19911;-47
2023/05/22 02:25:16;;;;;;;;;;;17.70;99.90;;;;;;5136153;27;19911;-48
2023/05/22 02:27:46;;;;;;;;;;;17.70;99.90;;;;;;5135926;27;19958;-47
2023/05/22 02:30:12;;;;;;;;;;;17.70;99.90;;;;;;5136961;27;19907;-46
2023/05/22 02:32:38;;;;;;;;;;;17.70;99.90;;;;;;5136045;27;19954;-47
2023/05/22 02:35:03;;;;;;;;;;;17.70;99.90;;;;;;5136071;27;19927;-49
2023/05/22 02:37:29;;;;;;;;;;;17.70;99.90;;;;;;5135402;28;20269;-47
2023/05/22 02:39:56;;;;;;;;;;;17.70;99.90;;;;;;5134668;28;19949;-47
2023/05/22 02:42:21;;;;;;;;;;;17.70;99.90;;;;;;5135514;28;19911;-47
2023/05/22 02:44:47;;;;;;;;;;;17.60;99.90;;;;;;5118402;28;20034;-47
2023/05/22 02:47:12;;;;;;;;;;;17.70;99.90;;;;;;5114140;28;19908;-49
2023/05/22 02:49:38;;;;;;;;;;;17.60;99.90;;;;;;5114674;28;20468;-47
2023/05/22 02:52:03;;;;;;;;;;;17.60;99.90;;;;;;5133007;27;19963;-47
2023/05/22 02:54:29;;;;;;;;;;;17.60;99.90;;;;;;5135228;28;20263;-48
2023/05/22 02:56:54;;;;;;;;;;;17.60;99.90;;;;;;5133943;28;19911;-48
2023/05/22 02:59:20;;;;;;;;;;;17.50;99.90;;;;;;5134271;28;19914;-47
2023/05/22 03:01:47;;;;;;;;;;;17.50;99.90;;;;;;5135037;28;20263;-48
2023/05/22 03:04:12;;;;;;;;;;;17.50;99.90;;;;;;5134901;28;20217;-48
2023/05/22 03:06:38;;;;;;;;;;;17.50;99.90;;;;;;5133593;28;20475;-48
2023/05/22 03:09:04;;;;;;;;;;;17.40;99.90;;;;;;5135101;28;19914;-46
2023/05/22 03:11:30;;;;;;;;;;;17.40;99.90;;;;;;5134978;28;20289;-48
2023/05/22 03:13:55;;;;;;;;;;;17.50;99.90;;;;;;5133993;28;19919;-48
2023/05/22 03:16:21;;;;;;;;;;;17.40;99.90;;;;;;5134928;28;19907;-48
2023/05/22 03:18:48;;;;;;;;;;;17.40;99.90;;;;;;5134762;28;19907;-45
2023/05/22 03:21:13;;;;;;;;;;;17.50;99.90;;;;;;5134287;28;20266;-46
2023/05/22 03:23:39;;;;;;;;;;;17.50;99.90;;;;;;5134613;28;19948;-49
2023/05/22 03:26:04;;;;;;;;;;;17.50;99.90;;;;;;5134797;28;19915;-51
2023/05/22 03:28:30;;;;;;;;;;;17.50;99.90;;;;;;5134006;28;19930;-46
2023/05/22 03:30:55;;;;;;;;;;;17.50;99.90;;;;;;5134568;28;19918;-46
2023/05/22 03:33:21;;;;;;;;;;;17.50;99.90;;;;;;5134650;28;19934;-46
2023/05/22 03:35:46;;;;;;;;;;;17.50;99.90;;;;;;5060606;27;1759775;-46
2023/05/22 03:38:12;;;;;;;;;;;17.50;99.90;;;;;;5114899;28;19964;-46
2023/05/22 03:40:37;;;;;;;;;;;17.50;99.90;;;;;;5114570;28;19908;-46
2023/05/22 03:43:03;;;;;;;;;;;17.50;99.90;;;;;;5114130;28;20351;-46
2023/05/22 03:45:28;;;;;;;;;;;17.50;99.90;;;;;;5114651;28;19908;-47
2023/05/22 03:47:54;;;;;;;;;;;17.50;99.90;;;;;;5114842;28;20475;-48
2023/05/22 03:50:19;;;;;;;;;;;17.50;99.90;;;;;;5114022;28;19915;-47
2023/05/22 03:52:45;;;;;;;;;;;17.50;99.90;;;;;;5114628;28;20259;-47
2023/05/22 03:55:11;;;;;;;;;;;17.50;99.90;;;;;;5114344;28;20365;-51
2023/05/22 03:57:36;;;;;;;;;;;17.50;99.90;;;;;;5114490;28;19918;-47
2023/05/22 04:00:05;;;;;;;;;;;17.50;99.90;;;;;;5114536;28;19918;-48
2023/05/22 04:02:30;;;;;;;;;;;17.50;99.90;;;;;;5113104;28;19916;-48
2023/05/22 04:04:56;;;;;;;;;;;17.50;99.90;;;;;;5116410;27;19916;-46
2023/05/22 04:07:21;;;;;;;;;;;17.50;99.90;;;;;;5134680;27;19911;-47
2023/05/22 04:09:47;;;;;;;;;;;17.50;99.90;;;;;;5133950;27;19930;-47
2023/05/22 04:12:12;;;;;;;;;;;17.50;99.90;;;;;;5134975;27;19911;-47
2023/05/22 04:14:37;;;;;;;;;;;17.60;99.90;;;;;;5134534;27;20377;-49
2023/05/22 04:17:03;;;;;;;;;;;17.50;99.90;;;;;;5134139;27;19912;-48
2023/05/22 04:19:29;;;;;;;;;;;17.60;99.90;;;;;;5141127;27;19965;-46
2023/05/22 04:21:56;;;;;;;;;;;17.50;99.90;;;;;;5146816;27;19918;-47
2023/05/22 04:24:22;;;;;;;;;;;17.60;99.90;;;;;;5154652;27;19918;-47
2023/05/22 04:26:48;;;;;;;;;;;17.50;99.90;;;;;;5134992;27;19915;-49
2023/05/22 04:29:13;;;;;;;;;;;17.60;99.90;;;;;;5122763;27;19915;-48
2023/05/22 04:31:39;;;;;;;;;;;17.60;99.90;;;;;;5127949;27;19908;-46
2023/05/22 04:34:05;;;;;;;;;;;17.50;99.90;;;;;;5134229;27;20364;-47
2023/05/22 04:36:30;;;;;;;;;;;17.50;99.90;;;;;;5133916;27;19912;-47
2023/05/22 04:38:56;;;;;;;;;;;17.50;99.90;;;;;;5133443;27;19914;-47
2023/05/22 04:41:25;;;;;;;;;;;17.50;99.90;;;;;;5134392;27;19907;-48
2023/05/22 04:43:53;;;;;;;;;;;17.50;99.90;;;;;;5133986;27;19916;-47
2023/05/22 04:46:19;;;;;;;;;;;17.50;99.90;;;;;;5133282;27;19907;-47
2023/05/22 04:48:46;;;;;;;;;;;17.50;99.90;;;;;;5134183;27;19915;-50
2023/05/22 04:51:11;;;;;;;;;;;17.50;99.90;;;;;;5134031;27;20376;-47
2023/05/22 04:53:37;;;;;;;;;;;17.50;99.90;;;;;;5133251;27;19911;-47
2023/05/22 04:56:03;;;;;;;;;;;17.60;99.90;;;;;;5133941;27;19907;-46
2023/05/22 04:58:28;;;;;;;;;;;17.60;99.90;;;;;;5133571;27;19907;-51
2023/05/22 05:00:56;;;;;;;;;;;17.60;99.90;;;;;;5127404;27;19912;-49
2023/05/22 05:03:22;;;;;;;;;;;17.70;99.90;;;;;;5123111;27;19958;-48
2023/05/22 05:05:47;;;;;;;;;;;17.70;99.90;;;;;;5120483;27;19969;-48
2023/05/22 05:08:13;;;;;;;;;;;17.70;99.90;;;;;;5124130;27;19911;-48
2023/05/22 05:10:38;;;;;;;;;;;17.70;99.90;;;;;;5122234;27;20362;-48
2023/05/22 05:13:04;;;;;;;;;;;17.70;99.90;;;;;;5122093;27;19918;-47
2023/05/22 05:15:29;;;;;;;;;;;17.70;99.90;;;;;;5121081;27;20066;-48
2023/05/22 05:17:55;;;;;;;;;;;17.70;99.90;;;;;;5121768;27;19951;-48
2023/05/22 05:20:20;;;;;;;;;;;17.80;99.90;;;;;;5120868;27;19919;-50
2023/05/22 05:22:46;;;;;;;;;;;17.70;99.90;;;;;;5123320;27;19920;-47
2023/05/22 05:25:12;;;;;;;;;;;17.70;99.90;;;;;;5128172;27;20286;-48
2023/05/22 05:27:37;;;;;;;;;;;17.70;99.90;;;;;;5136743;27;20341;-46
2023/05/22 05:30:03;;;;;;;;;;;17.70;99.90;;;;;;5134831;27;19911;-45
2023/05/22 05:32:29;;;;;;;;;;;17.70;99.90;;;;;;5133563;27;19917;-46
2023/05/22 05:34:55;;;;;;;;;;;17.70;99.90;;;;;;5124153;28;19919;-49
2023/05/22 05:37:21;;;;;;;;;;;17.70;99.90;;;;;;5120855;28;20006;-46
2023/05/22 05:39:46;;;;;;;;;;;17.70;99.90;;;;;;5129401;27;20308;-47
2023/05/22 05:42:12;;;;;;;;;;;17.70;99.90;;;;;;5132746;28;19911;-47
2023/05/22 05:44:37;;;;;;;;;;;17.70;99.90;;;;;;5140950;27;19915;-46
2023/05/22 05:47:03;;;;;;;;;;;17.80;99.90;;;;;;5154099;27;19914;-46
2023/05/22 05:49:28;;;;;;;;;;;17.70;99.90;;;;;;5153294;27;19911;-47
2023/05/22 05:51:54;;;;;;;;;;;17.70;99.90;;;;;;5122268;27;20328;-47
2023/05/22 05:54:20;;;;;;;;;;;17.80;99.90;;;;;;5112886;28;19912;-47
2023/05/22 05:56:45;;;;;;;;;;;17.80;99.90;;;;;;5128567;28;19912;-47
2023/05/22 05:59:11;;;;;;;;;;;17.80;99.90;;;;;;5143406;27;19960;-48
2023/05/22 06:01:38;;;;;;;;;;;17.70;99.90;;;;;;5149547;27;20377;-46
2023/05/22 06:04:04;;;;;;;;;;;17.70;99.90;;;;;;5147495;27;19915;-47
2023/05/22 06:06:34;;;;;;;;;;;17.80;99.90;;;;;;5153911;27;19907;-46
2023/05/22 06:09:00;;;;;;;;;;;17.70;99.90;;;;;;5153319;27;19956;-47
2023/05/22 06:11:25;;;;;;;;;;;17.70;99.90;;;;;;5136585;27;20430;-47
2023/05/22 06:13:51;;;;;;;;;;;17.70;99.90;;;;;;5121920;28;20048;-49
2023/05/22 06:16:16;;;;;;;;;;;17.70;99.90;;;;;;5132365;28;20357;-47
2023/05/22 06:18:41;;;;;;;;;;;17.70;99.90;;;;;;5133136;28;19994;-48
2023/05/22 06:21:07;;;;;;;;;;;17.70;99.90;;;;;;5137325;27;20389;-46
2023/05/22 06:23:32;;;;;;;;;;;17.70;99.90;;;;;;5143706;27;19941;-46
2023/05/22 06:25:58;;;;;;;;;;;17.70;99.90;;;;;;5154182;27;19907;-45
2023/05/22 06:28:23;;;;;;;;;;;17.70;99.90;;;;;;5157728;27;20262;-47
2023/05/22 06:30:49;;;;;;;;;;;17.70;99.90;;;;;;5136029;27;19915;-48
2023/05/22 06:33:15;;;;;;;;;;;17.80;99.90;;;;;;5146213;27;19910;-46
2023/05/22 06:35:41;;;;;;;;;;;17.80;99.90;;;;;;5154083;27;20370;-46
2023/05/22 06:38:06;;;;;;;;;;;17.70;99.90;;;;;;5128388;27;19916;-46
2023/05/22 06:40:31;;;;;;;;;;;17.70;99.90;;;;;;5136279;27;20319;-47
2023/05/22 06:42:58;;;;;;;;;;;17.80;99.90;;;;;;5136257;27;19919;-47
2023/05/22 06:45:23;;;;;;;;;;;17.70;99.90;;;;;;5129227;27;19908;-47
2023/05/22 06:47:52;;;;;;;;;;;17.70;99.90;;;;;;5129358;27;20006;-48
2023/05/22 06:50:19;;;;;;;;;;;17.80;99.90;;;;;;5136401;27;19907;-45
2023/05/22 06:52:44;;;;;;;;;;;17.80;99.90;;;;;;5135565;27;20168;-47
2023/05/22 06:55:10;;;;;;;;;;;17.80;99.90;;;;;;5136537;27;20205;-46
2023/05/22 06:57:36;;;;;;;;;;;17.80;99.90;;;;;;5136358;27;20010;-46
2023/05/22 07:00:03;;;;;;;;;;;17.90;99.90;;;;;;5138078;27;19907;-47
2023/05/22 07:02:28;;;;;;;;;;;17.90;99.90;;;;;;5138741;27;19915;-46
2023/05/22 07:04:54;;;;;;;;;;;17.90;99.90;;;;;;5138713;27;19915;-46
2023/05/22 07:07:19;;;;;;;;;;;17.90;99.90;;;;;;5146988;27;20381;-46
2023/05/22 07:09:45;;;;;;;;;;;18.00;99.90;;;;;;5156749;27;19907;-47
2023/05/22 07:12:11;;;;;;;;;;;18.00;99.90;;;;;;5156119;27;19907;-48
2023/05/22 07:14:36;;;;;;;;;;;18.10;99.90;;;;;;5138721;27;20386;-47
2023/05/22 07:17:02;;;;;;;;;;;18.10;99.90;;;;;;5138945;27;19916;-47
2023/05/22 07:19:27;;;;;;;;;;;18.20;99.90;;;;;;5134415;27;19911;-46
2023/05/22 07:21:53;;;;;;;;;;;18.30;99.90;;;;;;5124414;27;19912;-46
2023/05/22 07:24:18;;;;;;;;;;;18.40;99.90;;;;;;5114819;28;20373;-46
2023/05/22 07:26:47;;;;;;;;;;;18.40;99.90;;;;;;5114037;28;19908;-47
2023/05/22 07:29:12;;;;;;;;;;;18.60;99.90;;;;;;5114386;28;20027;-47
2023/05/22 07:31:38;;;;;;;;;;;18.70;99.90;;;;;;5113450;28;20354;-48
2023/05/22 07:34:03;;;;;;;;;;;18.70;99.90;;;;;;5114923;28;19943;-48
2023/05/22 07:36:30;;;;;;;;;;;18.80;99.90;;;;;;5115572;28;19954;-47
2023/05/22 07:38:56;;;;;;;;;;;18.90;99.90;;;;;;5114091;28;20043;-47
2023/05/22 07:41:22;;;;;;;;;;;18.90;99.90;;;;;;5114846;28;19951;-47
2023/05/22 07:43:48;;;;;;;;;;;18.80;99.90;;;;;;5115073;28;19916;-46
2023/05/22 07:46:14;;;;;;;;;;;18.80;99.90;;;;;;5124983;27;20327;-46
2023/05/22 07:48:39;;;;;;;;;;;18.70;99.90;;;;;;5135108;27;19911;-50
2023/05/22 07:51:05;;;;;;;;;;;18.70;99.90;;;;;;5135869;27;19907;-47
2023/05/22 07:53:30;;;;;;;;;;;18.60;99.90;;;;;;5135384;27;19916;-48
2023/05/22 07:55:56;;;;;;;;;;;18.60;99.90;;;;;;5135132;27;19908;-48
2023/05/22 07:58:23;;;;;;;;;;;18.50;99.90;;;;;;5135294;27;19907;-48
2023/05/22 08:00:48;;;;;;;;;;;18.40;99.90;;;;;;5135526;27;19908;-47
2023/05/22 08:03:14;;;;;;;;;;;18.40;99.90;;;;;;5135126;27;19915;-47
2023/05/22 08:05:40;;;;;;;;;;;18.40;99.90;;;;;;5135980;27;19911;-47
2023/05/22 08:08:05;;;;;;;;;;;18.40;99.90;;;;;;5140089;27;19913;-49
2023/05/22 08:10:31;;;;;;;;;;;18.40;99.90;;;;;;5134826;27;19907;-48
2023/05/22 08:13:01;;;;;;;;;;;18.50;99.90;;;;;;5135103;27;19927;-46
2023/05/22 08:15:26;;;;;;;;;;;18.50;99.90;;;;;;5133773;27;20006;-50
2023/05/22 08:17:52;;;;;;;;;;;18.60;99.90;;;;;;5114172;28;20341;-47
2023/05/22 08:20:17;;;;;;;;;;;18.60;99.90;;;;;;5114471;28;19994;-47
2023/05/22 08:22:43;;;;;;;;;;;18.70;99.90;;;;;;5112289;28;19912;-45
2023/05/22 08:25:08;;;;;;;;;;;18.80;99.90;;;;;;5114579;28;19980;-47
2023/05/22 08:27:34;;;;;;;;;;;18.90;99.90;;;;;;5114070;28;19908;-48
2023/05/22 08:30:00;;;;;;;;;;;19.00;99.90;;;;;;5114013;28;19908;-50
2023/05/22 08:32:25;;;;;;;;;;;19.10;99.90;;;;;;5114668;28;19922;-46
2023/05/22 08:34:51;;;;;;;;;;;19.10;99.90;;;;;;5145743;27;19919;-46
2023/05/22 08:37:16;;;;;;;;;;;19.10;99.90;;;;;;5154347;27;20009;-46
2023/05/22 08:39:42;;;;;;;;;;;19.10;99.90;;;;;;5155088;27;19907;-45
2023/05/22 08:42:07;;;;;;;;;;;19.10;99.90;;;;;;5155642;27;19907;-48
2023/05/22 08:44:33;;;;;;;;;;;19.10;99.90;;;;;;5155305;27;19917;-47
2023/05/22 08:46:59;;;;;;;;;;;19.10;99.90;;;;;;5125421;27;19925;-45
2023/05/22 08:49:25;;;;;;;;;;;19.10;99.90;;;;;;5113332;28;19908;-46
2023/05/22 08:51:55;;;;;;;;;;;19.00;99.90;;;;;;5112867;28;19907;-45
2023/05/22 08:54:23;;;;;;;;;;;19.10;99.90;;;;;;5137420;27;19962;-46
2023/05/22 08:56:49;;;;;;;;;;;19.10;99.90;;;;;;5134048;27;19907;-46
2023/05/22 08:59:15;;;;;;;;;;;19.20;99.90;;;;;;5133408;27;19908;-46
2023/05/22 09:01:40;;;;;;;;;;;19.30;99.90;;;;;;5133933;27;20289;-46
2023/05/22 09:04:06;;;;;;;;;;;19.30;99.90;;;;;;5133752;27;19922;-45
2023/05/22 09:06:31;;;;;;;;;;;19.40;99.90;;;;;;5133071;27;19914;-46
2023/05/22 09:09:00;;;;;;;;;;;19.40;99.90;;;;;;5134295;27;20378;-45
2023/05/22 09:11:25;;;;;;;;;;;19.50;99.90;;;;;;5134362;27;19915;-48
2023/05/22 09:13:51;;;;;;;;;;;19.50;99.90;;;;;;5133815;27;19927;-48
2023/05/22 09:16:17;;;;;;;;;;;19.60;99.90;;;;;;5133656;27;19996;-47
2023/05/22 09:18:42;;;;;;;;;;;19.60;99.90;;;;;;5134088;27;19994;-50
2023/05/22 09:21:08;;;;;;;;;;;19.70;99.90;;;;;;5134272;27;19908;-47
2023/05/22 09:23:34;;;;;;;;;;;19.70;99.90;;;;;;5134080;27;20376;-48
2023/05/22 09:26:00;;;;;;;;;;;19.80;99.90;;;;;;5133678;27;19939;-46
2023/05/22 09:28:26;;;;;;;;;;;19.80;99.90;;;;;;5134427;28;19908;-48
2023/05/22 09:30:52;;;;;;;;;;;19.80;99.90;;;;;;5134095;28;19994;-49
2023/05/22 09:33:18;;;;;;;;;;;19.90;99.90;;;;;;5133899;28;19914;-49
2023/05/22 09:35:48;;;;;;;;;;;19.90;99.90;;;;;;5133960;28;20369;-46
2023/05/22 09:38:14;;;;;;;;;;;19.90;99.90;;;;;;5134270;28;19915;-47
2023/05/22 09:40:40;;;;;;;;;;;19.90;99.90;;;;;;5133299;28;20282;-46
2023/05/22 09:43:06;;;;;;;;;;;19.90;99.90;;;;;;5134226;28;19915;-46
2023/05/22 09:45:33;;;;;;;;;;;19.90;99.90;;;;;;5134339;28;19974;-46
2023/05/22 09:47:58;;;;;;;;;;;19.90;99.90;;;;;;5133587;28;20281;-47
2023/05/22 09:50:24;;;;;;;;;;;19.90;99.90;;;;;;5134072;28;20381;-47
2023/05/22 09:52:49;;;;;;;;;;;20.00;99.90;;;;;;5134051;28;19908;-47
2023/05/22 09:55:15;;;;;;;;;;;20.00;99.90;;;;;;5133547;28;19911;-46
2023/05/22 09:57:44;;;;;;;;;;;20.00;99.90;;;;;;5134052;28;20016;-47
2023/05/22 10:00:14;;;;;;;;;;;20.10;99.90;;;;;;5134070;27;20023;-46
2023/05/22 10:02:44;;;;;;;;;;;20.10;99.90;;;;;;5136663;27;19911;-46
2023/05/22 10:05:10;;;;;;;;;;;20.10;99.90;;;;;;5137676;27;19908;-46
2023/05/22 10:07:39;;;;;;;;;;;20.20;99.90;;;;;;5138058;27;19908;-47
2023/05/22 10:10:10;;;;;;;;;;;20.20;99.90;;;;;;5137511;27;20010;-48
2023/05/22 10:12:42;;;;;;;;;;;20.20;99.90;;;;;;5137788;27;20348;-46
2023/05/22 10:15:09;;;;;;;;;;;20.20;99.90;;;;;;5135396;27;19907;-46
2023/05/22 10:17:35;;;;;;;;;;;20.20;99.90;;;;;;5151879;27;19911;-46
2023/05/22 10:20:02;;;;;;;;;;;20.20;99.90;;;;;;5150414;27;19919;-46
2023/05/22 10:22:29;;;;;;;;;;;20.20;99.90;;;;;;5150112;27;19975;-47
2023/05/22 10:24:55;;;;;;;;;;;20.20;99.90;;;;;;5145621;27;19912;-46
2023/05/22 10:27:21;;;;;;;;;;;20.20;99.90;;;;;;5131626;27;19916;-46
2023/05/22 10:29:51;;;;;;;;;;;20.20;99.90;;;;;;5133053;27;19918;-46
2023/05/22 10:32:32;;;;;;;;;;;20.20;99.90;;;;;;5133671;27;19915;-46
2023/05/22 10:35:03;;;;;;;;;;;20.20;99.90;;;;;;5135467;27;19923;-47
2023/05/22 10:37:40;;;;;;;;;;;20.20;99.90;;;;;;5135482;27;20262;-48
2023/05/22 10:40:07;;;;;;;;;;;20.20;99.90;;;;;;5136432;27;19950;-47
2023/05/22 10:42:33;;;;;;;;;;;20.20;99.90;;;;;;5136109;27;19911;-46
2023/05/22 10:45:02;;;;;;;;;;;20.30;99.90;;;;;;5135687;27;19918;-45
2023/05/22 10:47:27;;;;;;;;;;;20.40;99.90;;;;;;5134726;27;20342;-49
2023/05/22 10:50:03;;;;;;;;;;;20.60;99.90;;;;;;5136297;27;19914;-46
2023/05/22 10:52:28;;;;;;;;;;;20.80;99.90;;;;;;5135532;27;19934;-48
2023/05/22 10:54:55;;;;;;;;;;;20.90;99.90;;;;;;5136259;27;20353;-47
2023/05/22 10:57:22;;;;;;;;;;;21.00;99.90;;;;;;5136329;27;19908;-47
2023/05/22 10:59:48;;;;;;;;;;;21.10;99.90;;;;;;5136758;27;19966;-49
2023/05/22 11:02:18;;;;;;;;;;;21.30;99.90;;;;;;5136656;27;19943;-47
2023/05/22 11:04:43;;;;;;;;;;;21.50;99.90;;;;;;5136201;27;19961;-47
2023/05/22 11:07:12;;;;;;;;;;;21.50;99.90;;;;;;5136443;27;20341;-47
2023/05/22 11:09:47;;;;;;;;;;;21.70;99.90;;;;;;5136709;27;20015;-47
2023/05/22 11:12:15;;;;;;;;;;;21.80;99.90;;;;;;5135121;27;19907;-47
2023/05/22 11:14:57;;;;;;;;;;;22.00;99.90;;;;;;5136578;27;19961;-49
2023/05/22 11:17:24;;;;;;;;;;;22.10;99.90;;;;;;5136515;27;20002;-46
2023/05/22 11:19:58;;;;;;;;;;;22.20;99.90;;;;;;5135530;27;19908;-46
2023/05/22 11:22:28;;;;;;;;;;;22.50;99.90;;;;;;5135768;27;19907;-46
2023/05/22 11:24:53;;;;;;;;;;;22.70;99.90;;;;;;5136008;27;19908;-46
2023/05/22 11:27:19;;;;;;;;;;;22.80;99.90;;;;;;5135940;27;20304;-47
2023/05/22 11:29:46;;;;;;;;;;;22.90;99.90;;;;;;5135852;27;19915;-47
2023/05/22 11:32:16;;;;;;;;;;;23.00;99.90;;;;;;5136238;27;20338;-46
2023/05/22 11:34:42;;;;;;;;;;;23.10;99.90;;;;;;5135224;27;19923;-47
2023/05/22 11:37:08;;;;;;;;;;;23.10;99.90;;;;;;5136056;27;19959;-48
2023/05/22 11:39:33;;;;;;;;;;;23.20;99.90;;;;;;5134827;27;19907;-46
2023/05/22 11:41:59;;;;;;;;;;;23.30;99.90;;;;;;5135986;27;19907;-46
2023/05/22 11:44:26;;;;;;;;;;;23.50;99.90;;;;;;5134227;27;19929;-46
2023/05/22 11:46:53;;;;;;;;;;;23.70;99.90;;;;;;5134875;27;19911;-47
2023/05/22 11:49:22;;;;;;;;;;;23.80;99.90;;;;;;5156119;27;20001;-47
2023/05/22 11:51:48;;;;;;;;;;;23.90;99.90;;;;;;5156480;27;19919;-47
2023/05/22 11:54:16;;;;;;;;;;;24.10;99.90;;;;;;5140594;27;19911;-46
2023/05/22 11:56:42;;;;;;;;;;;24.20;99.90;;;;;;5126426;27;19942;-47
2023/05/22 11:59:07;;;;;;;;;;;24.20;99.90;;;;;;5133882;27;20350;-47
2023/05/22 12:01:35;;;;;;;;;;;24.20;99.90;;;;;;5126339;27;19918;-46
2023/05/22 12:04:00;;;;;;;;;;;24.20;99.90;;;;;;5130425;27;19915;-47
2023/05/22 12:06:26;;;;;;;;;;;24.20;99.90;;;;;;5125563;27;20006;-46
2023/05/22 12:08:52;;;;;;;;;;;24.20;99.90;;;;;;5134301;27;19909;-45
2023/05/22 12:11:17;;;;;;;;;;;24.20;99.90;;;;;;5134983;27;19911;-45
2023/05/22 12:13:44;;;;;;;;;;;24.30;99.90;;;;;;5131420;27;20366;-47
2023/05/22 12:16:20;;;;;;;;;;;24.50;99.90;;;;;;5134795;27;19911;-46
2023/05/22 12:18:46;;;;;;;;;;;24.50;99.90;;;;;;5136163;27;19911;-45
2023/05/22 12:21:11;;;;;;;;;;;24.60;99.90;;;;;;5134653;27;19915;-47
2023/05/22 12:23:46;;;;;;;;;;;24.70;99.90;;;;;;5133510;27;19962;-47
2023/05/22 12:26:11;;;;;;;;;;;24.80;99.90;;;;;;5135046;27;20388;-47
2023/05/22 12:28:37;;;;;;;;;;;24.90;99.90;;;;;;5134658;27;19912;-52
2023/05/22 12:31:02;;;;;;;;;;;25.10;99.90;;;;;;5134932;27;20431;-46
2023/05/22 12:33:28;;;;;;;;;;;25.20;99.90;;;;;;5134589;27;19911;-47
2023/05/22 12:35:57;;;;;;;;;;;25.40;99.90;;;;;;5133071;27;19953;-46
2023/05/22 12:38:26;;;;;;;;;;;25.40;99.90;;;;;;5134692;27;20331;-47
2023/05/22 12:40:52;;;;;;;;;;;25.60;99.90;;;;;;5134152;27;19907;-47
2023/05/22 12:43:18;;;;;;;;;;;25.70;99.90;;;;;;5132464;27;19919;-49
2023/05/22 12:45:43;;;;;;;;;;;25.80;99.90;;;;;;5133025;27;19908;-49
2023/05/22 12:48:09;;;;;;;;;;;26.00;99.90;;;;;;5132505;27;20396;-46
2023/05/22 12:50:34;;;;;;;;;;;26.20;99.90;;;;;;5132701;27;19951;-47
2023/05/22 12:53:01;;;;;;;;;;;26.50;99.90;;;;;;5133124;27;19908;-47
2023/05/22 12:55:26;;;;;;;;;;;26.70;99.90;;;;;;5133301;27;19915;-48
2023/05/22 12:57:52;;;;;;;;;;;26.80;99.90;;;;;;5133355;27;19907;-47
2023/05/22 13:00:17;;;;;;;;;;;27.00;99.90;;;;;;5143782;27;19923;-48
2023/05/22 13:02:43;;;;;;;;;;;27.10;99.90;;;;;;5132608;27;20018;-47
2023/05/22 13:05:09;;;;;;;;;;;27.30;99.90;;;;;;5147087;27;20361;-49
2023/05/22 13:07:35;;;;;;;;;;;27.40;99.90;;;;;;5145981;27;19911;-48
2023/05/22 13:10:02;;;;;;;;;;;27.60;99.90;;;;;;5150789;27;20019;-48
2023/05/22 13:12:29;;;;;;;;;;;27.70;99.90;;;;;;5139302;27;19955;-47
2023/05/22 13:14:55;;;;;;;;;;;27.90;99.00;;;;;;5150381;27;19946;-47
2023/05/22 13:17:20;;;;;;;;;;;28.10;96.00;;;;;;5153113;27;19950;-48
2023/05/22 13:19:46;;;;;;;;;;;28.20;94.80;;;;;;5129357;27;19965;-47
2023/05/22 13:22:12;;;;;;;;;;;28.20;94.50;;;;;;5122138;27;19919;-49
2023/05/22 13:24:38;;;;;;;;;;;28.40;92.00;;;;;;5132879;27;19919;-46
2023/05/22 13:27:03;;;;;;;;;;;28.60;92.50;;;;;;5132475;27;20380;-46
2023/05/22 13:29:29;;;;;;;;;;;28.90;95.00;;;;;;5132763;27;19914;-47
2023/05/22 13:31:54;;;;;;;;;;;28.90;93.70;;;;;;5132079;28;19908;-50
2023/05/22 13:34:20;;;;;;;;;;;29.20;88.90;;;;;;5117779;27;19923;-45
2023/05/22 13:36:45;;;;;;;;;;;29.10;89.10;;;;;;5125849;27;19961;-49
2023/05/22 13:39:11;;;;;;;;;;;29.00;90.50;;;;;;5136397;27;19946;-45
2023/05/22 13:41:36;;;;;;;;;;;28.50;87.40;;;;;;5137327;27;19933;-45
2023/05/22 13:44:02;;;;;;;;;;;28.00;86.70;;;;;;5136394;27;19915;-46
2023/05/22 13:46:27;;;;;;;;;;;27.60;91.20;;;;;;5136519;27;20025;-43
2023/05/22 13:48:53;;;;;;;;;;;27.10;93.20;;;;;;5127357;27;19919;-44
2023/05/22 13:51:18;;;;;;;;;;;26.70;94.40;;;;;;5137058;27;20320;-45
2023/05/22 13:53:44;;;;;;;;;;;26.40;95.30;;;;;;5115926;27;19914;-43
2023/05/22 13:56:09;;;;;;;;;;;26.10;96.50;;;;;;5125104;27;20247;-44
2023/05/22 13:58:34;;;;;;;;;;;25.80;97.20;;;;;;5112048;28;19919;-45
2023/05/22 14:01:00;;;;;;;;;;;25.50;98.00;;;;;;5133308;27;19927;-46
2023/05/22 14:03:25;;;;;;;;;;;25.20;98.30;;;;;;5122430;27;19916;-49
2023/05/22 14:05:51;;;;;;;;;;;24.90;98.90;;;;;;5115884;28;19912;-45
2023/05/22 14:08:16;;;;;;;;;;;24.80;99.60;;;;;;5127587;27;20157;-45
2023/05/22 14:10:42;;;;;;;;;;;24.70;99.90;;;;;;5136356;27;20007;-46